Terminal Aerodrome Forecast
Issued by NWS

Home | Current Version | Previous Version | Text Only | Print | Product List | Glossary On
Versions: 1 2 3 4 5 6 7 8 9 10 11 12 13 14 15 16 17 18
000
FTAK31 PAJN 300500
TAFAPG
TAF
PAPG 300520Z 3006/3106 00000KT P6SM -SHRA SCT015 SCT025 BKN050
     FM300900 00000KT P6SM BCFG VCSH SCT005 BKN050
      TEMPO 3012/3016 2SM BR BKN005
     FM301800 VRB03KT P6SM SCT025 BKN050 BKN100
     FM302100 06005KT P6SM SCT050 BKN100
     FM310300 VRB03KT P6SM BKN100
      AMD LTD TO CLD VIS AND WIND 3006/3015=

USA.gov is the U.S. government's official web portal to all federal, state and local government web resources and services.